Sint Joris Winge

EBEM · Vlaams-Brabant, Flanders, 比利时

罗盘
风向 的 风向 010° 直升机
风: 5 kt, 2 beaufort
0 ft 1.000 2.000 3.000 4.000 5.000
未检测到零云
METAR EBDT 252225Z AUTO 01005KT 9999 NCD 21/14 Q1012 BLU

METAR Sint Joris Winge - EBEM

Sint Joris Winge是,比利时中的直升机场。 该机场位于纬度50,90611和经度4,86500。 本场的ICAO机场代码为EBEM。 机场在Bruxelles FIR中。

该航空气象观测是针对Schaffen Airfield在2024年6月26日 00:25, 当地时间进行的。

机场观察

风向为010°,速度为5 kt。

可见度为10 km 或者更多。

有未检测到零云。 没有观察到天花板。

温度和风寒是21 °C。 露点为14 °C,相对湿度为64%。 海平面上的气压为1012 hPa (QNH)。

白天

今天,太阳从05:27升起,在21:58降落。 这适用于Sint Joris Winge,世界夏令时可能有所不同。 当地时间与世界标准时间之间的时差为+2 小时。 夏令时目前正在进行中。

公司介绍

我们没有关于这个机场的公司信息。

体会

到Vliegles.nl去找飞行课程,跳伞和其他飞行体验。 浏览页面,了解Sint Joris Winge附近所有可用的活动。 你也可以使用搜索功能来寻找你所在地附近的特定飞行课程、跳伞或其他飞行体验。

乌云

- NCD 未检测到零云

温度 & 天气

温度 21 °C
露点 14 °C
相对湿度 64%
Kp-index 1 (0-9)

白天

日出
05:26 (4:39)
中午
13:42
日落
21:58

小工具

你想在你的网站上有一个关于Sint Joris Winge的当前航空天气(METAR)的小部件吗?

显示HTML代码
报告变更